sensor_id;sensor_type;location;lat;lon;timestamp;P1;durP1;ratioP1;P2;durP2;ratioP2
77800;SDS011;66991;50.058;14.454;2023-02-24T00:01:57;30.60;;;16.70;;
77800;SDS011;66991;50.058;14.454;2023-02-24T00:04:25;30.00;;;17.38;;
77800;SDS011;66991;50.058;14.454;2023-02-24T00:06:51;30.67;;;17.30;;
77800;SDS011;66991;50.058;14.454;2023-02-24T00:09:18;35.30;;;18.35;;
77800;SDS011;66991;50.058;14.454;2023-02-24T00:11:46;35.65;;;17.85;;
77800;SDS011;66991;50.058;14.454;2023-02-24T00:14:16;32.00;;;17.80;;
77800;SDS011;66991;50.058;14.454;2023-02-24T00:16:42;32.47;;;17.17;;
77800;SDS011;66991;50.058;14.454;2023-02-24T00:19:09;33.88;;;18.33;;
77800;SDS011;66991;50.058;14.454;2023-02-24T00:21:37;32.65;;;18.45;;
77800;SDS011;66991;50.058;14.454;2023-02-24T00:24:02;33.47;;;18.52;;
77800;SDS011;66991;50.058;14.454;2023-02-24T00:26:28;32.30;;;18.30;;
77800;SDS011;66991;50.058;14.454;2023-02-24T00:28:54;39.50;;;21.30;;
77800;SDS011;66991;50.058;14.454;2023-02-24T00:31:24;38.90;;;21.42;;
77800;SDS011;66991;50.058;14.454;2023-02-24T00:33:50;38.08;;;20.95;;
77800;SDS011;66991;50.058;14.454;2023-02-24T00:36:17;33.83;;;20.77;;
77800;SDS011;66991;50.058;14.454;2023-02-24T00:38:51;35.20;;;19.73;;
77800;SDS011;66991;50.058;14.454;2023-02-24T00:41:19;34.17;;;19.20;;
77800;SDS011;66991;50.058;14.454;2023-02-24T00:43:46;36.40;;;19.45;;
77800;SDS011;66991;50.058;14.454;2023-02-24T00:46:16;38.05;;;19.55;;
77800;SDS011;66991;50.058;14.454;2023-02-24T00:48:46;36.78;;;19.33;;
77800;SDS011;66991;50.058;14.454;2023-02-24T00:51:16;34.78;;;19.38;;
77800;SDS011;66991;50.058;14.454;2023-02-24T00:53:47;36.42;;;18.00;;
77800;SDS011;66991;50.058;14.454;2023-02-24T00:56:14;33.60;;;19.13;;
77800;SDS011;66991;50.058;14.454;2023-02-24T00:58:40;33.55;;;18.42;;
77800;SDS011;66991;50.058;14.454;2023-02-24T01:01:13;33.97;;;17.73;;
77800;SDS011;66991;50.058;14.454;2023-02-24T01:03:41;32.20;;;17.92;;
77800;SDS011;66991;50.058;14.454;2023-02-24T01:06:06;32.85;;;16.48;;
77800;SDS011;66991;50.058;14.454;2023-02-24T01:08:32;28.80;;;15.38;;
77800;SDS011;66991;50.058;14.454;2023-02-24T01:11:00;25.58;;;14.07;;
77800;SDS011;66991;50.058;14.454;2023-02-24T01:13:44;26.30;;;14.27;;
77800;SDS011;66991;50.058;14.454;2023-02-24T01:16:10;31.60;;;14.52;;
77800;SDS011;66991;50.058;14.454;2023-02-24T01:18:38;23.38;;;14.07;;
77800;SDS011;66991;50.058;14.454;2023-02-24T01:21:04;25.48;;;14.27;;
77800;SDS011;66991;50.058;14.454;2023-02-24T01:23:29;30.33;;;15.85;;
77800;SDS011;66991;50.058;14.454;2023-02-24T01:25:54;26.50;;;15.35;;
77800;SDS011;66991;50.058;14.454;2023-02-24T01:28:24;24.75;;;14.15;;
77800;SDS011;66991;50.058;14.454;2023-02-24T01:30:50;30.45;;;15.15;;
77800;SDS011;66991;50.058;14.454;2023-02-24T01:33:16;27.02;;;14.90;;
77800;SDS011;66991;50.058;14.454;2023-02-24T01:35:41;28.27;;;13.52;;
77800;SDS011;66991;50.058;14.454;2023-02-24T01:38:06;28.33;;;13.68;;
77800;SDS011;66991;50.058;14.454;2023-02-24T01:40:32;27.10;;;14.88;;
77800;SDS011;66991;50.058;14.454;2023-02-24T01:42:57;25.58;;;13.50;;
77800;SDS011;66991;50.058;14.454;2023-02-24T01:45:24;26.02;;;13.93;;
77800;SDS011;66991;50.058;14.454;2023-02-24T01:47:58;27.98;;;14.50;;
77800;SDS011;66991;50.058;14.454;2023-02-24T01:50:25;25.55;;;13.75;;
77800;SDS011;66991;50.058;14.454;2023-02-24T01:52:53;23.38;;;12.65;;
77800;SDS011;66991;50.058;14.454;2023-02-24T01:55:22;22.40;;;12.82;;
77800;SDS011;66991;50.058;14.454;2023-02-24T01:57:52;25.67;;;13.07;;
77800;SDS011;66991;50.058;14.454;2023-02-24T02:00:19;22.20;;;12.45;;
77800;SDS011;66991;50.058;14.454;2023-02-24T02:06:06;22.40;;;11.82;;
77800;SDS011;66991;50.058;14.454;2023-02-24T02:08:37;24.33;;;13.20;;
77800;SDS011;66991;50.058;14.454;2023-02-24T02:11:06;21.75;;;11.25;;
77800;SDS011;66991;50.058;14.454;2023-02-24T02:13:33;21.67;;;11.80;;
77800;SDS011;66991;50.058;14.454;2023-02-24T02:24:26;19.02;;;10.25;;
77800;SDS011;66991;50.058;14.454;2023-02-24T02:35:37;18.33;;;10.10;;
77800;SDS011;66991;50.058;14.454;2023-02-24T02:46:25;17.83;;;9.63;;
77800;SDS011;66991;50.058;14.454;2023-02-24T02:48:59;19.08;;;10.40;;
77800;SDS011;66991;50.058;14.454;2023-02-24T02:51:34;19.73;;;10.27;;
77800;SDS011;66991;50.058;14.454;2023-02-24T02:56:56;21.25;;;10.90;;
77800;SDS011;66991;50.058;14.454;2023-02-24T02:59:25;17.67;;;9.05;;
77800;SDS011;66991;50.058;14.454;2023-02-24T03:01:53;18.50;;;10.65;;
77800;SDS011;66991;50.058;14.454;2023-02-24T03:04:25;18.17;;;9.98;;
77800;SDS011;66991;50.058;14.454;2023-02-24T03:06:58;20.63;;;9.50;;
77800;SDS011;66991;50.058;14.454;2023-02-24T03:09:26;15.88;;;8.15;;
77800;SDS011;66991;50.058;14.454;2023-02-24T03:11:55;18.90;;;9.20;;
77800;SDS011;66991;50.058;14.454;2023-02-24T03:14:30;16.73;;;9.00;;
77800;SDS011;66991;50.058;14.454;2023-02-24T03:17:01;15.07;;;8.43;;
77800;SDS011;66991;50.058;14.454;2023-02-24T03:19:31;18.25;;;9.02;;
77800;SDS011;66991;50.058;14.454;2023-02-24T03:22:03;17.58;;;8.30;;
77800;SDS011;66991;50.058;14.454;2023-02-24T03:24:36;17.08;;;8.82;;
77800;SDS011;66991;50.058;14.454;2023-02-24T03:27:15;17.40;;;8.60;;
77800;SDS011;66991;50.058;14.454;2023-02-24T03:29:57;15.68;;;8.02;;
77800;SDS011;66991;50.058;14.454;2023-02-24T03:34:58;16.77;;;8.60;;
77800;SDS011;66991;50.058;14.454;2023-02-24T03:37:25;16.45;;;8.13;;
77800;SDS011;66991;50.058;14.454;2023-02-24T03:39:52;16.02;;;8.80;;
77800;SDS011;66991;50.058;14.454;2023-02-24T03:42:18;19.15;;;8.85;;
77800;SDS011;66991;50.058;14.454;2023-02-24T03:44:45;17.42;;;8.75;;
77800;SDS011;66991;50.058;14.454;2023-02-24T03:47:10;17.95;;;8.52;;
77800;SDS011;66991;50.058;14.454;2023-02-24T03:49:37;15.65;;;8.02;;
77800;SDS011;66991;50.058;14.454;2023-02-24T03:57:27;16.00;;;8.57;;
77800;SDS011;66991;50.058;14.454;2023-02-24T04:00:29;16.10;;;7.75;;
77800;SDS011;66991;50.058;14.454;2023-02-24T04:05:41;14.73;;;7.40;;
77800;SDS011;66991;50.058;14.454;2023-02-24T04:08:11;18.00;;;8.07;;
77800;SDS011;66991;50.058;14.454;2023-02-24T04:16:33;15.32;;;8.35;;
77800;SDS011;66991;50.058;14.454;2023-02-24T04:19:05;20.65;;;8.95;;
77800;SDS011;66991;50.058;14.454;2023-02-24T04:21:33;16.35;;;8.88;;
77800;SDS011;66991;50.058;14.454;2023-02-24T04:24:01;19.23;;;8.95;;
77800;SDS011;66991;50.058;14.454;2023-02-24T04:26:35;16.13;;;8.23;;
77800;SDS011;66991;50.058;14.454;2023-02-24T04:29:04;17.35;;;9.18;;
77800;SDS011;66991;50.058;14.454;2023-02-24T04:31:30;15.30;;;8.60;;
77800;SDS011;66991;50.058;14.454;2023-02-24T04:33:56;17.67;;;8.35;;
77800;SDS011;66991;50.058;14.454;2023-02-24T04:36:24;16.42;;;8.73;;
77800;SDS011;66991;50.058;14.454;2023-02-24T04:38:49;14.85;;;8.70;;
77800;SDS011;66991;50.058;14.454;2023-02-24T04:41:14;16.35;;;8.63;;
77800;SDS011;66991;50.058;14.454;2023-02-24T04:43:45;19.15;;;8.52;;
77800;SDS011;66991;50.058;14.454;2023-02-24T04:46:11;14.80;;;8.15;;
77800;SDS011;66991;50.058;14.454;2023-02-24T04:48:37;17.27;;;8.05;;
77800;SDS011;66991;50.058;14.454;2023-02-24T04:51:03;19.83;;;8.85;;
77800;SDS011;66991;50.058;14.454;2023-02-24T04:53:30;17.65;;;8.73;;
77800;SDS011;66991;50.058;14.454;2023-02-24T04:55:56;17.05;;;8.40;;
77800;SDS011;66991;50.058;14.454;2023-02-24T04:58:32;14.85;;;7.82;;
77800;SDS011;66991;50.058;14.454;2023-02-24T05:00:58;16.73;;;9.38;;
77800;SDS011;66991;50.058;14.454;2023-02-24T05:03:24;15.30;;;8.45;;
77800;SDS011;66991;50.058;14.454;2023-02-24T05:05:56;15.55;;;8.23;;
77800;SDS011;66991;50.058;14.454;2023-02-24T05:08:24;15.27;;;8.63;;
77800;SDS011;66991;50.058;14.454;2023-02-24T05:10:50;15.50;;;7.85;;
77800;SDS011;66991;50.058;14.454;2023-02-24T05:13:17;16.90;;;8.93;;
77800;SDS011;66991;50.058;14.454;2023-02-24T05:15:44;15.68;;;8.38;;
77800;SDS011;66991;50.058;14.454;2023-02-24T05:18:11;16.48;;;8.77;;
77800;SDS011;66991;50.058;14.454;2023-02-24T05:20:42;16.13;;;8.43;;
77800;SDS011;66991;50.058;14.454;2023-02-24T05:23:27;19.05;;;8.82;;
77800;SDS011;66991;50.058;14.454;2023-02-24T05:25:56;16.95;;;9.10;;
77800;SDS011;66991;50.058;14.454;2023-02-24T05:28:22;15.35;;;8.45;;
77800;SDS011;66991;50.058;14.454;2023-02-24T05:30:49;15.75;;;9.07;;
77800;SDS011;66991;50.058;14.454;2023-02-24T05:33:15;17.17;;;8.88;;
77800;SDS011;66991;50.058;14.454;2023-02-24T05:35:45;15.63;;;8.88;;
77800;SDS011;66991;50.058;14.454;2023-02-24T05:38:15;18.02;;;8.00;;
77800;SDS011;66991;50.058;14.454;2023-02-24T05:40:43;18.20;;;8.35;;
77800;SDS011;66991;50.058;14.454;2023-02-24T05:43:12;16.77;;;8.32;;
77800;SDS011;66991;50.058;14.454;2023-02-24T05:45:46;17.85;;;8.50;;
77800;SDS011;66991;50.058;14.454;2023-02-24T05:48:12;16.30;;;8.63;;
77800;SDS011;66991;50.058;14.454;2023-02-24T05:50:41;15.68;;;8.63;;
77800;SDS011;66991;50.058;14.454;2023-02-24T05:53:10;17.73;;;8.48;;
77800;SDS011;66991;50.058;14.454;2023-02-24T05:55:36;15.90;;;9.02;;
77800;SDS011;66991;50.058;14.454;2023-02-24T05:58:01;19.20;;;9.25;;
77800;SDS011;66991;50.058;14.454;2023-02-24T06:00:31;16.80;;;9.02;;
77800;SDS011;66991;50.058;14.454;2023-02-24T06:02:56;19.83;;;8.95;;
77800;SDS011;66991;50.058;14.454;2023-02-24T06:05:32;16.92;;;8.75;;
77800;SDS011;66991;50.058;14.454;2023-02-24T06:07:58;16.08;;;8.32;;
77800;SDS011;66991;50.058;14.454;2023-02-24T06:10:32;18.60;;;9.32;;
77800;SDS011;66991;50.058;14.454;2023-02-24T06:12:59;19.85;;;9.45;;
77800;SDS011;66991;50.058;14.454;2023-02-24T06:15:25;14.80;;;8.65;;
77800;SDS011;66991;50.058;14.454;2023-02-24T06:17:51;23.70;;;9.25;;
77800;SDS011;66991;50.058;14.454;2023-02-24T06:20:17;20.33;;;9.20;;
77800;SDS011;66991;50.058;14.454;2023-02-24T06:22:42;19.45;;;8.90;;
77800;SDS011;66991;50.058;14.454;2023-02-24T06:25:08;18.08;;;9.48;;
77800;SDS011;66991;50.058;14.454;2023-02-24T06:27:35;20.42;;;9.43;;
77800;SDS011;66991;50.058;14.454;2023-02-24T06:30:03;16.90;;;8.68;;
77800;SDS011;66991;50.058;14.454;2023-02-24T06:32:34;18.98;;;9.27;;
77800;SDS011;66991;50.058;14.454;2023-02-24T06:35:00;14.60;;;8.85;;
77800;SDS011;66991;50.058;14.454;2023-02-24T06:37:25;18.02;;;9.27;;
77800;SDS011;66991;50.058;14.454;2023-02-24T06:39:51;17.67;;;8.57;;
77800;SDS011;66991;50.058;14.454;2023-02-24T06:42:16;17.25;;;9.00;;
77800;SDS011;66991;50.058;14.454;2023-02-24T06:44:41;18.15;;;9.75;;
77800;SDS011;66991;50.058;14.454;2023-02-24T06:47:09;14.82;;;8.32;;
77800;SDS011;66991;50.058;14.454;2023-02-24T06:49:36;17.30;;;8.90;;
77800;SDS011;66991;50.058;14.454;2023-02-24T06:52:02;15.02;;;7.78;;
77800;SDS011;66991;50.058;14.454;2023-02-24T06:54:28;18.10;;;9.38;;
77800;SDS011;66991;50.058;14.454;2023-02-24T06:56:54;17.15;;;9.27;;
77800;SDS011;66991;50.058;14.454;2023-02-24T06:59:21;21.42;;;9.77;;
77800;SDS011;66991;50.058;14.454;2023-02-24T07:01:47;19.85;;;9.50;;
77800;SDS011;66991;50.058;14.454;2023-02-24T07:04:13;17.67;;;8.70;;
77800;SDS011;66991;50.058;14.454;2023-02-24T07:06:39;17.40;;;9.00;;
77800;SDS011;66991;50.058;14.454;2023-02-24T07:09:07;22.13;;;10.25;;
77800;SDS011;66991;50.058;14.454;2023-02-24T07:11:37;17.00;;;9.45;;
77800;SDS011;66991;50.058;14.454;2023-02-24T07:14:05;16.73;;;9.25;;
77800;SDS011;66991;50.058;14.454;2023-02-24T07:16:31;21.13;;;9.95;;
77800;SDS011;66991;50.058;14.454;2023-02-24T07:18:59;17.50;;;9.23;;
77800;SDS011;66991;50.058;14.454;2023-02-24T07:21:27;20.83;;;10.20;;
77800;SDS011;66991;50.058;14.454;2023-02-24T07:23:54;28.05;;;13.15;;
77800;SDS011;66991;50.058;14.454;2023-02-24T07:26:24;24.95;;;12.27;;
77800;SDS011;66991;50.058;14.454;2023-02-24T07:28:50;19.90;;;11.50;;
77800;SDS011;66991;50.058;14.454;2023-02-24T07:31:19;21.95;;;10.45;;
77800;SDS011;66991;50.058;14.454;2023-02-24T07:33:46;22.70;;;11.48;;
77800;SDS011;66991;50.058;14.454;2023-02-24T07:36:13;26.20;;;13.35;;
77800;SDS011;66991;50.058;14.454;2023-02-24T07:38:47;25.55;;;12.27;;
77800;SDS011;66991;50.058;14.454;2023-02-24T07:41:19;20.55;;;11.38;;
77800;SDS011;66991;50.058;14.454;2023-02-24T07:43:46;23.75;;;12.00;;
77800;SDS011;66991;50.058;14.454;2023-02-24T07:46:16;20.88;;;11.50;;
77800;SDS011;66991;50.058;14.454;2023-02-24T07:48:48;19.95;;;11.43;;
77800;SDS011;66991;50.058;14.454;2023-02-24T07:51:15;21.95;;;10.95;;
77800;SDS011;66991;50.058;14.454;2023-02-24T07:53:41;24.45;;;10.63;;
77800;SDS011;66991;50.058;14.454;2023-02-24T07:56:11;21.73;;;11.13;;
77800;SDS011;66991;50.058;14.454;2023-02-24T07:58:40;19.52;;;10.75;;
77800;SDS011;66991;50.058;14.454;2023-02-24T08:01:09;22.83;;;10.98;;
77800;SDS011;66991;50.058;14.454;2023-02-24T08:03:46;21.85;;;10.98;;
77800;SDS011;66991;50.058;14.454;2023-02-24T08:06:16;20.08;;;10.85;;
77800;SDS011;66991;50.058;14.454;2023-02-24T08:08:51;23.85;;;10.73;;
77800;SDS011;66991;50.058;14.454;2023-02-24T08:11:28;17.98;;;9.95;;
77800;SDS011;66991;50.058;14.454;2023-02-24T08:14:00;22.52;;;10.80;;
77800;SDS011;66991;50.058;14.454;2023-02-24T08:16:27;21.08;;;10.38;;
77800;SDS011;66991;50.058;14.454;2023-02-24T08:19:03;22.98;;;11.00;;
77800;SDS011;66991;50.058;14.454;2023-02-24T08:21:32;17.50;;;9.30;;
77800;SDS011;66991;50.058;14.454;2023-02-24T08:24:03;16.88;;;9.13;;
77800;SDS011;66991;50.058;14.454;2023-02-24T08:26:29;16.33;;;9.32;;
77800;SDS011;66991;50.058;14.454;2023-02-24T08:28:55;17.38;;;9.27;;
77800;SDS011;66991;50.058;14.454;2023-02-24T08:31:22;19.33;;;9.82;;
77800;SDS011;66991;50.058;14.454;2023-02-24T08:33:48;19.00;;;9.43;;
77800;SDS011;66991;50.058;14.454;2023-02-24T08:36:15;18.58;;;9.45;;
77800;SDS011;66991;50.058;14.454;2023-02-24T08:38:45;18.02;;;9.27;;
77800;SDS011;66991;50.058;14.454;2023-02-24T08:41:16;14.02;;;8.23;;
77800;SDS011;66991;50.058;14.454;2023-02-24T08:43:43;17.30;;;8.15;;
77800;SDS011;66991;50.058;14.454;2023-02-24T08:48:49;15.77;;;8.07;;
77800;SDS011;66991;50.058;14.454;2023-02-24T08:51:21;13.73;;;7.57;;
77800;SDS011;66991;50.058;14.454;2023-02-24T08:53:53;19.75;;;9.05;;
77800;SDS011;66991;50.058;14.454;2023-02-24T08:56:27;24.58;;;10.75;;
77800;SDS011;66991;50.058;14.454;2023-02-24T08:58:54;20.52;;;9.95;;
77800;SDS011;66991;50.058;14.454;2023-02-24T09:01:29;18.23;;;8.75;;
77800;SDS011;66991;50.058;14.454;2023-02-24T09:04:01;18.50;;;7.85;;
77800;SDS011;66991;50.058;14.454;2023-02-24T09:09:12;13.13;;;7.20;;
77800;SDS011;66991;50.058;14.454;2023-02-24T09:11:42;13.50;;;7.72;;
77800;SDS011;66991;50.058;14.454;2023-02-24T09:14:10;14.93;;;7.35;;
77800;SDS011;66991;50.058;14.454;2023-02-24T09:19:25;12.35;;;7.00;;
77800;SDS011;66991;50.058;14.454;2023-02-24T09:22:21;12.98;;;6.80;;
77800;SDS011;66991;50.058;14.454;2023-02-24T09:27:52;13.75;;;6.82;;
77800;SDS011;66991;50.058;14.454;2023-02-24T09:30:27;11.23;;;6.03;;
77800;SDS011;66991;50.058;14.454;2023-02-24T09:33:13;12.98;;;6.68;;
77800;SDS011;66991;50.058;14.454;2023-02-24T09:35:46;14.68;;;6.28;;
77800;SDS011;66991;50.058;14.454;2023-02-24T09:38:13;13.93;;;6.07;;
77800;SDS011;66991;50.058;14.454;2023-02-24T09:40:40;11.07;;;6.18;;
77800;SDS011;66991;50.058;14.454;2023-02-24T09:43:23;13.65;;;6.28;;
77800;SDS011;66991;50.058;14.454;2023-02-24T09:46:03;13.40;;;5.53;;
77800;SDS011;66991;50.058;14.454;2023-02-24T09:51:11;11.20;;;5.03;;
77800;SDS011;66991;50.058;14.454;2023-02-24T09:53:45;12.50;;;5.43;;
77800;SDS011;66991;50.058;14.454;2023-02-24T09:56:23;13.65;;;5.70;;
77800;SDS011;66991;50.058;14.454;2023-02-24T10:07:30;10.98;;;5.72;;
77800;SDS011;66991;50.058;14.454;2023-02-24T10:12:48;13.63;;;6.65;;
77800;SDS011;66991;50.058;14.454;2023-02-24T10:15:17;12.10;;;6.32;;
77800;SDS011;66991;50.058;14.454;2023-02-24T10:17:57;13.35;;;5.90;;
77800;SDS011;66991;50.058;14.454;2023-02-24T10:20:35;12.90;;;5.53;;
77800;SDS011;66991;50.058;14.454;2023-02-24T10:26:01;14.50;;;5.55;;
77800;SDS011;66991;50.058;14.454;2023-02-24T10:31:15;7.63;;;3.95;;
77800;SDS011;66991;50.058;14.454;2023-02-24T10:34:01;9.23;;;4.47;;
77800;SDS011;66991;50.058;14.454;2023-02-24T10:36:30;7.55;;;4.22;;
77800;SDS011;66991;50.058;14.454;2023-02-24T10:41:50;7.88;;;4.13;;
77800;SDS011;66991;50.058;14.454;2023-02-24T10:44:26;8.02;;;4.32;;
77800;SDS011;66991;50.058;14.454;2023-02-24T10:47:04;10.70;;;4.35;;
77800;SDS011;66991;50.058;14.454;2023-02-24T10:49:43;9.23;;;3.97;;
77800;SDS011;66991;50.058;14.454;2023-02-24T10:52:23;8.93;;;3.50;;
77800;SDS011;66991;50.058;14.454;2023-02-24T10:55:30;8.20;;;2.60;;
77800;SDS011;66991;50.058;14.454;2023-02-24T10:58:10;14.50;;;3.33;;
77800;SDS011;66991;50.058;14.454;2023-02-24T11:03:38;6.85;;;2.65;;
77800;SDS011;66991;50.058;14.454;2023-02-24T11:06:17;9.32;;;2.92;;
77800;SDS011;66991;50.058;14.454;2023-02-24T11:09:02;6.38;;;3.05;;
77800;SDS011;66991;50.058;14.454;2023-02-24T11:11:42;5.75;;;2.50;;
77800;SDS011;66991;50.058;14.454;2023-02-24T11:14:36;9.90;;;3.30;;
77800;SDS011;66991;50.058;14.454;2023-02-24T11:17:30;7.40;;;2.80;;
77800;SDS011;66991;50.058;14.454;2023-02-24T11:19:57;10.52;;;2.90;;
77800;SDS011;66991;50.058;14.454;2023-02-24T11:22:31;6.15;;;2.65;;
77800;SDS011;66991;50.058;14.454;2023-02-24T11:25:04;7.78;;;3.00;;
77800;SDS011;66991;50.058;14.454;2023-02-24T11:27:31;9.23;;;4.53;;
77800;SDS011;66991;50.058;14.454;2023-02-24T11:30:02;11.02;;;4.50;;
77800;SDS011;66991;50.058;14.454;2023-02-24T11:35:20;6.88;;;3.63;;
77800;SDS011;66991;50.058;14.454;2023-02-24T11:38:00;8.15;;;3.03;;
77800;SDS011;66991;50.058;14.454;2023-02-24T11:40:39;7.80;;;3.15;;
77800;SDS011;66991;50.058;14.454;2023-02-24T11:43:10;6.85;;;3.08;;
77800;SDS011;66991;50.058;14.454;2023-02-24T11:45:39;7.72;;;3.53;;
77800;SDS011;66991;50.058;14.454;2023-02-24T11:48:12;7.63;;;3.00;;
77800;SDS011;66991;50.058;14.454;2023-02-24T11:55:58;9.35;;;3.55;;
77800;SDS011;66991;50.058;14.454;2023-02-24T12:01:34;7.17;;;2.93;;
77800;SDS011;66991;50.058;14.454;2023-02-24T12:06:20;6.13;;;2.90;;
77800;SDS011;66991;50.058;14.454;2023-02-24T12:08:49;5.20;;;2.65;;
77800;SDS011;66991;50.058;14.454;2023-02-24T12:11:34;7.93;;;2.88;;
77800;SDS011;66991;50.058;14.454;2023-02-24T12:19:54;11.65;;;3.70;;
77800;SDS011;66991;50.058;14.454;2023-02-24T12:22:23;7.60;;;3.17;;
77800;SDS011;66991;50.058;14.454;2023-02-24T12:24:52;9.02;;;3.67;;
77800;SDS011;66991;50.058;14.454;2023-02-24T12:27:35;6.03;;;2.40;;
77800;SDS011;66991;50.058;14.454;2023-02-24T12:30:20;4.55;;;2.17;;
77800;SDS011;66991;50.058;14.454;2023-02-24T12:43:38;4.28;;;2.38;;
77800;SDS011;66991;50.058;14.454;2023-02-24T12:46:08;6.35;;;2.97;;
77800;SDS011;66991;50.058;14.454;2023-02-24T12:53:54;9.38;;;3.55;;
77800;SDS011;66991;50.058;14.454;2023-02-24T12:59:40;7.63;;;3.10;;
77800;SDS011;66991;50.058;14.454;2023-02-24T13:05:30;8.05;;;2.50;;
77800;SDS011;66991;50.058;14.454;2023-02-24T13:11:15;10.90;;;3.55;;
77800;SDS011;66991;50.058;14.454;2023-02-24T13:16:26;17.80;;;6.78;;
77800;SDS011;66991;50.058;14.454;2023-02-24T13:19:03;11.52;;;5.47;;
77800;SDS011;66991;50.058;14.454;2023-02-24T13:21:30;26.10;;;9.77;;
77800;SDS011;66991;50.058;14.454;2023-02-24T13:23:57;10.48;;;3.60;;
77800;SDS011;66991;50.058;14.454;2023-02-24T13:26:24;10.13;;;4.00;;
77800;SDS011;66991;50.058;14.454;2023-02-24T13:29:01;8.27;;;4.43;;
77800;SDS011;66991;50.058;14.454;2023-02-24T13:31:44;15.48;;;5.13;;
77800;SDS011;66991;50.058;14.454;2023-02-24T13:36:46;8.73;;;4.13;;
77800;SDS011;66991;50.058;14.454;2023-02-24T13:39:20;9.63;;;3.38;;
77800;SDS011;66991;50.058;14.454;2023-02-24T13:42:15;8.45;;;4.00;;
77800;SDS011;66991;50.058;14.454;2023-02-24T14:01:05;9.32;;;3.70;;
77800;SDS011;66991;50.058;14.454;2023-02-24T14:03:32;5.57;;;3.03;;
77800;SDS011;66991;50.058;14.454;2023-02-24T14:05:59;9.85;;;2.92;;
77800;SDS011;66991;50.058;14.454;2023-02-24T14:08:37;5.78;;;2.60;;
77800;SDS011;66991;50.058;14.454;2023-02-24T14:11:06;7.18;;;3.25;;
77800;SDS011;66991;50.058;14.454;2023-02-24T14:13:34;6.35;;;2.72;;
77800;SDS011;66991;50.058;14.454;2023-02-24T14:16:04;7.97;;;2.28;;
77800;SDS011;66991;50.058;14.454;2023-02-24T14:18:31;6.03;;;2.53;;
77800;SDS011;66991;50.058;14.454;2023-02-24T14:20:56;6.60;;;2.13;;
77800;SDS011;66991;50.058;14.454;2023-02-24T14:23:23;4.20;;;1.77;;
77800;SDS011;66991;50.058;14.454;2023-02-24T14:26:05;4.47;;;1.90;;
77800;SDS011;66991;50.058;14.454;2023-02-24T14:28:36;4.03;;;2.03;;
77800;SDS011;66991;50.058;14.454;2023-02-24T14:31:13;7.03;;;2.50;;
77800;SDS011;66991;50.058;14.454;2023-02-24T14:33:40;5.25;;;2.40;;
77800;SDS011;66991;50.058;14.454;2023-02-24T14:36:14;5.55;;;2.10;;
77800;SDS011;66991;50.058;14.454;2023-02-24T14:38:42;5.72;;;2.10;;
77800;SDS011;66991;50.058;14.454;2023-02-24T14:43:47;7.65;;;2.55;;
77800;SDS011;66991;50.058;14.454;2023-02-24T14:46:12;5.40;;;2.80;;
77800;SDS011;66991;50.058;14.454;2023-02-24T14:48:38;5.63;;;2.58;;
77800;SDS011;66991;50.058;14.454;2023-02-24T14:51:07;7.55;;;2.72;;
77800;SDS011;66991;50.058;14.454;2023-02-24T14:53:37;5.70;;;2.33;;
77800;SDS011;66991;50.058;14.454;2023-02-24T14:56:05;11.75;;;3.10;;
77800;SDS011;66991;50.058;14.454;2023-02-24T14:58:35;7.38;;;2.53;;
77800;SDS011;66991;50.058;14.454;2023-02-24T15:01:13;7.03;;;2.63;;
77800;SDS011;66991;50.058;14.454;2023-02-24T15:03:51;8.70;;;2.80;;
77800;SDS011;66991;50.058;14.454;2023-02-24T15:06:22;10.88;;;3.40;;
77800;SDS011;66991;50.058;14.454;2023-02-24T15:08:50;10.55;;;3.40;;
77800;SDS011;66991;50.058;14.454;2023-02-24T15:11:22;6.43;;;3.15;;
77800;SDS011;66991;50.058;14.454;2023-02-24T15:13:58;7.00;;;3.58;;
77800;SDS011;66991;50.058;14.454;2023-02-24T15:16:37;10.90;;;4.15;;
77800;SDS011;66991;50.058;14.454;2023-02-24T15:19:04;8.45;;;3.55;;
77800;SDS011;66991;50.058;14.454;2023-02-24T15:21:48;13.07;;;5.03;;
77800;SDS011;66991;50.058;14.454;2023-02-24T15:24:18;17.33;;;7.35;;
77800;SDS011;66991;50.058;14.454;2023-02-24T15:27:02;24.17;;;9.73;;
77800;SDS011;66991;50.058;14.454;2023-02-24T15:29:40;10.75;;;5.10;;
77800;SDS011;66991;50.058;14.454;2023-02-24T15:32:14;6.82;;;2.85;;
77800;SDS011;66991;50.058;14.454;2023-02-24T15:34:44;13.18;;;5.35;;
77800;SDS011;66991;50.058;14.454;2023-02-24T15:37:18;8.82;;;4.55;;
77800;SDS011;66991;50.058;14.454;2023-02-24T15:39:47;6.60;;;3.53;;
77800;SDS011;66991;50.058;14.454;2023-02-24T15:44:54;19.00;;;8.25;;
77800;SDS011;66991;50.058;14.454;2023-02-24T15:47:21;13.40;;;5.72;;
77800;SDS011;66991;50.058;14.454;2023-02-24T15:49:51;13.25;;;6.07;;
77800;SDS011;66991;50.058;14.454;2023-02-24T15:52:19;13.40;;;5.60;;
77800;SDS011;66991;50.058;14.454;2023-02-24T15:54:47;12.13;;;4.40;;
77800;SDS011;66991;50.058;14.454;2023-02-24T15:57:13;12.40;;;5.88;;
77800;SDS011;66991;50.058;14.454;2023-02-24T15:59:40;18.73;;;7.45;;
77800;SDS011;66991;50.058;14.454;2023-02-24T16:02:16;14.77;;;6.57;;
77800;SDS011;66991;50.058;14.454;2023-02-24T16:04:43;11.90;;;5.53;;
77800;SDS011;66991;50.058;14.454;2023-02-24T16:07:10;19.67;;;7.03;;
77800;SDS011;66991;50.058;14.454;2023-02-24T16:09:40;11.82;;;4.97;;
77800;SDS011;66991;50.058;14.454;2023-02-24T16:12:09;11.00;;;4.93;;
77800;SDS011;66991;50.058;14.454;2023-02-24T16:14:37;13.52;;;4.95;;
77800;SDS011;66991;50.058;14.454;2023-02-24T16:17:04;9.65;;;4.32;;
77800;SDS011;66991;50.058;14.454;2023-02-24T16:19:32;27.80;;;8.63;;
77800;SDS011;66991;50.058;14.454;2023-02-24T16:21:58;16.75;;;6.95;;
77800;SDS011;66991;50.058;14.454;2023-02-24T16:24:23;13.80;;;5.47;;
77800;SDS011;66991;50.058;14.454;2023-02-24T16:26:48;10.93;;;4.53;;
77800;SDS011;66991;50.058;14.454;2023-02-24T16:29:13;9.52;;;2.53;;
77800;SDS011;66991;50.058;14.454;2023-02-24T16:31:39;16.70;;;6.32;;
77800;SDS011;66991;50.058;14.454;2023-02-24T16:34:05;10.20;;;3.17;;
77800;SDS011;66991;50.058;14.454;2023-02-24T16:36:31;9.52;;;3.85;;
77800;SDS011;66991;50.058;14.454;2023-02-24T16:38:56;8.80;;;3.58;;
77800;SDS011;66991;50.058;14.454;2023-02-24T16:41:22;21.50;;;7.38;;
77800;SDS011;66991;50.058;14.454;2023-02-24T16:43:48;20.13;;;7.38;;
77800;SDS011;66991;50.058;14.454;2023-02-24T16:46:17;10.60;;;3.97;;
77800;SDS011;66991;50.058;14.454;2023-02-24T16:51:10;20.95;;;9.48;;
77800;SDS011;66991;50.058;14.454;2023-02-24T16:53:36;12.52;;;5.07;;
77800;SDS011;66991;50.058;14.454;2023-02-24T16:56:01;18.05;;;8.27;;
77800;SDS011;66991;50.058;14.454;2023-02-24T16:58:28;17.23;;;5.85;;
77800;SDS011;66991;50.058;14.454;2023-02-24T17:00:55;18.85;;;6.93;;
77800;SDS011;66991;50.058;14.454;2023-02-24T17:03:23;7.97;;;3.60;;
77800;SDS011;66991;50.058;14.454;2023-02-24T17:05:57;11.40;;;4.65;;
77800;SDS011;66991;50.058;14.454;2023-02-24T17:08:23;14.57;;;5.88;;
77800;SDS011;66991;50.058;14.454;2023-02-24T17:10:48;15.20;;;7.00;;
77800;SDS011;66991;50.058;14.454;2023-02-24T17:13:18;18.08;;;6.43;;
77800;SDS011;66991;50.058;14.454;2023-02-24T17:15:44;11.18;;;4.70;;
77800;SDS011;66991;50.058;14.454;2023-02-24T17:18:09;16.40;;;6.82;;